ヨハネスブルグ の空港の天気 - METARとTAF

ヨハネスブルグ/O.R.タンボ国際空港 ( FAOR / JNB ) - 南アフリカ ヨハネスブルグ
飛行場実況気象(Metar)
観測時間01/19 12:00 SAST (01/19 10:00 UTC)
風向・風速南 8m/s
視程10km以上
天気現象
なし
気温25℃
湿度30%
気圧1020hPa
METARFAOR 191000Z 18015KT CAVOK 25/06 Q1020 NOSIG
過去の天気等 Google飛行場航空写真 Wunderground天気予報

過去48時間のMETAR

飛行場予報(TAF)
発表時間: 1/19 06:00 SAST (1/19 04:00 UTC)
予報対象時間: 19日8時 SAST ~ 20日14時 SAST
風向・風速南西 5m/s
視程10km以上
なし
19日19時 SAST ~ 19日21時 SAST に徐々に
風向・風速東 8m/s
19日21時 SAST ~ 19日23時 SAST に徐々に
全天の8割程度の雲 雲底高度 370m
20日2時 SAST ~ 20日8時 SAST に 確率 30% で一時的に
全天の8割程度の雲 雲底高度 180m
20日10時 SAST ~ 20日12時 SAST に徐々に
全天の4割程度の雲 雲底高度 610m
TAF FAOR 190400Z 1906/2012 22010KT CAVOK TX29/1913Z TN14/2003Z
BECMG 1917/1919 10015KT
BECMG 1919/1921 BKN012
PROB30 TEMPO 2000/2006 BKN006
BECMG 2008/2010 SCT020